sensor_id;sensor_type;location;lat;lon;timestamp;P1;durP1;ratioP1;P2;durP2;ratioP2
51270;SDS011;37744;50.960;4.136;2022-11-15T00:01:08;45.17;;;24.95;;
51270;SDS011;37744;50.960;4.136;2022-11-15T00:03:34;44.15;;;24.27;;
51270;SDS011;37744;50.960;4.136;2022-11-15T00:06:03;43.60;;;24.98;;
51270;SDS011;37744;50.960;4.136;2022-11-15T00:08:30;46.88;;;26.52;;
51270;SDS011;37744;50.960;4.136;2022-11-15T00:10:56;45.35;;;24.75;;
51270;SDS011;37744;50.960;4.136;2022-11-15T00:13:22;46.42;;;25.58;;
51270;SDS011;37744;50.960;4.136;2022-11-15T00:15:48;47.13;;;24.92;;
51270;SDS011;37744;50.960;4.136;2022-11-15T00:18:14;48.65;;;25.35;;
51270;SDS011;37744;50.960;4.136;2022-11-15T00:20:40;43.60;;;25.08;;
51270;SDS011;37744;50.960;4.136;2022-11-15T00:23:06;50.25;;;25.95;;
51270;SDS011;37744;50.960;4.136;2022-11-15T00:25:32;45.13;;;24.80;;
51270;SDS011;37744;50.960;4.136;2022-11-15T00:27:58;43.85;;;23.35;;
51270;SDS011;37744;50.960;4.136;2022-11-15T00:30:24;39.70;;;24.13;;
51270;SDS011;37744;50.960;4.136;2022-11-15T00:32:49;40.22;;;22.38;;
51270;SDS011;37744;50.960;4.136;2022-11-15T00:35:15;40.80;;;22.17;;
51270;SDS011;37744;50.960;4.136;2022-11-15T00:37:40;39.50;;;20.73;;
51270;SDS011;37744;50.960;4.136;2022-11-15T00:40:06;38.65;;;20.45;;
51270;SDS011;37744;50.960;4.136;2022-11-15T00:42:32;39.70;;;20.73;;
51270;SDS011;37744;50.960;4.136;2022-11-15T00:44:58;37.13;;;21.67;;
51270;SDS011;37744;50.960;4.136;2022-11-15T00:47:23;38.25;;;19.90;;
51270;SDS011;37744;50.960;4.136;2022-11-15T00:49:49;37.45;;;20.40;;
51270;SDS011;37744;50.960;4.136;2022-11-15T00:53:13;31.27;;;19.88;;
51270;SDS011;37744;50.960;4.136;2022-11-15T00:56:37;34.60;;;19.97;;
51270;SDS011;37744;50.960;4.136;2022-11-15T01:00:01;37.07;;;20.97;;
51270;SDS011;37744;50.960;4.136;2022-11-15T01:03:36;32.58;;;18.48;;
51270;SDS011;37744;50.960;4.136;2022-11-15T01:10:24;30.58;;;18.15;;
51270;SDS011;37744;50.960;4.136;2022-11-15T01:13:48;34.15;;;20.08;;
51270;SDS011;37744;50.960;4.136;2022-11-15T01:17:13;35.40;;;19.40;;
51270;SDS011;37744;50.960;4.136;2022-11-15T01:20:40;35.53;;;20.23;;
51270;SDS011;37744;50.960;4.136;2022-11-15T01:24:05;32.65;;;19.23;;
51270;SDS011;37744;50.960;4.136;2022-11-15T01:27:29;33.33;;;18.75;;
51270;SDS011;37744;50.960;4.136;2022-11-15T01:31:00;33.22;;;19.73;;
51270;SDS011;37744;50.960;4.136;2022-11-15T01:34:24;36.08;;;20.08;;
51270;SDS011;37744;50.960;4.136;2022-11-15T01:37:48;34.90;;;19.80;;
51270;SDS011;37744;50.960;4.136;2022-11-15T01:41:18;34.53;;;19.33;;
51270;SDS011;37744;50.960;4.136;2022-11-15T01:44:44;33.38;;;18.67;;
51270;SDS011;37744;50.960;4.136;2022-11-15T01:48:11;35.40;;;18.73;;
51270;SDS011;37744;50.960;4.136;2022-11-15T01:51:55;32.67;;;18.85;;
51270;SDS011;37744;50.960;4.136;2022-11-15T01:55:21;33.28;;;18.38;;
51270;SDS011;37744;50.960;4.136;2022-11-15T01:58:48;38.33;;;19.15;;
51270;SDS011;37744;50.960;4.136;2022-11-15T02:04:55;29.90;;;18.17;;
51270;SDS011;37744;50.960;4.136;2022-11-15T02:08:19;33.25;;;17.98;;
51270;SDS011;37744;50.960;4.136;2022-11-15T02:11:43;34.50;;;17.98;;
51270;SDS011;37744;50.960;4.136;2022-11-15T02:15:07;31.77;;;18.38;;
51270;SDS011;37744;50.960;4.136;2022-11-15T02:42:02;31.02;;;17.92;;
51270;SDS011;37744;50.960;4.136;2022-11-15T02:46:13;26.75;;;16.58;;
51270;SDS011;37744;50.960;4.136;2022-11-15T02:49:46;29.73;;;17.70;;
51270;SDS011;37744;50.960;4.136;2022-11-15T02:53:10;31.90;;;17.63;;
51270;SDS011;37744;50.960;4.136;2022-11-15T02:56:39;31.83;;;16.60;;
51270;SDS011;37744;50.960;4.136;2022-11-15T03:00:09;30.63;;;15.23;;
51270;SDS011;37744;50.960;4.136;2022-11-15T03:03:49;29.75;;;14.50;;
51270;SDS011;37744;50.960;4.136;2022-11-15T03:14:50;28.40;;;14.32;;
51270;SDS011;37744;50.960;4.136;2022-11-15T03:18:33;25.63;;;14.82;;
51270;SDS011;37744;50.960;4.136;2022-11-15T03:22:09;26.23;;;14.27;;
51270;SDS011;37744;50.960;4.136;2022-11-15T03:25:36;27.83;;;13.57;;
51270;SDS011;37744;50.960;4.136;2022-11-15T03:29:13;25.35;;;13.95;;
51270;SDS011;37744;50.960;4.136;2022-11-15T03:32:40;22.58;;;12.55;;
51270;SDS011;37744;50.960;4.136;2022-11-15T03:36:05;23.13;;;13.05;;
51270;SDS011;37744;50.960;4.136;2022-11-15T03:39:30;23.35;;;11.75;;
51270;SDS011;37744;50.960;4.136;2022-11-15T03:43:07;20.58;;;11.50;;
51270;SDS011;37744;50.960;4.136;2022-11-15T03:46:52;23.30;;;11.93;;
51270;SDS011;37744;50.960;4.136;2022-11-15T03:50:27;23.90;;;11.07;;
51270;SDS011;37744;50.960;4.136;2022-11-15T03:57:17;20.10;;;10.73;;
51270;SDS011;37744;50.960;4.136;2022-11-15T04:00:41;19.67;;;10.20;;
51270;SDS011;37744;50.960;4.136;2022-11-15T04:04:05;19.48;;;10.02;;
51270;SDS011;37744;50.960;4.136;2022-11-15T04:07:29;16.08;;;9.38;;
51270;SDS011;37744;50.960;4.136;2022-11-15T04:10:53;18.07;;;9.67;;
51270;SDS011;37744;50.960;4.136;2022-11-15T04:14:17;19.03;;;9.73;;
51270;SDS011;37744;50.960;4.136;2022-11-15T04:17:47;17.80;;;9.68;;
51270;SDS011;37744;50.960;4.136;2022-11-15T04:21:31;15.77;;;9.38;;
51270;SDS011;37744;50.960;4.136;2022-11-15T04:25:13;15.82;;;9.32;;
51270;SDS011;37744;50.960;4.136;2022-11-15T04:28:39;16.38;;;9.02;;
51270;SDS011;37744;50.960;4.136;2022-11-15T04:32:04;19.25;;;8.95;;
51270;SDS011;37744;50.960;4.136;2022-11-15T04:35:28;17.77;;;8.60;;
51270;SDS011;37744;50.960;4.136;2022-11-15T04:39:31;18.65;;;9.23;;
51270;SDS011;37744;50.960;4.136;2022-11-15T04:42:55;16.98;;;8.85;;
51270;SDS011;37744;50.960;4.136;2022-11-15T04:46:19;18.57;;;8.67;;
51270;SDS011;37744;50.960;4.136;2022-11-15T04:49:42;18.83;;;8.55;;
51270;SDS011;37744;50.960;4.136;2022-11-15T04:53:06;16.23;;;8.03;;
51270;SDS011;37744;50.960;4.136;2022-11-15T04:56:30;15.70;;;7.63;;
51270;SDS011;37744;50.960;4.136;2022-11-15T04:59:54;15.63;;;7.80;;
51270;SDS011;37744;50.960;4.136;2022-11-15T05:03:18;17.63;;;7.97;;
51270;SDS011;37744;50.960;4.136;2022-11-15T05:06:45;13.75;;;7.20;;
51270;SDS011;37744;50.960;4.136;2022-11-15T05:10:09;17.45;;;7.72;;
51270;SDS011;37744;50.960;4.136;2022-11-15T05:13:33;16.65;;;7.00;;
51270;SDS011;37744;50.960;4.136;2022-11-15T05:16:57;16.70;;;7.10;;
51270;SDS011;37744;50.960;4.136;2022-11-15T05:20:24;15.07;;;6.68;;
51270;SDS011;37744;50.960;4.136;2022-11-15T05:23:48;17.27;;;6.43;;
51270;SDS011;37744;50.960;4.136;2022-11-15T05:27:12;13.00;;;6.63;;
51270;SDS011;37744;50.960;4.136;2022-11-15T05:30:36;11.80;;;6.27;;
51270;SDS011;37744;50.960;4.136;2022-11-15T05:34:04;16.52;;;5.57;;
51270;SDS011;37744;50.960;4.136;2022-11-15T05:37:31;11.05;;;4.95;;
51270;SDS011;37744;50.960;4.136;2022-11-15T05:40:56;10.30;;;4.97;;
51270;SDS011;37744;50.960;4.136;2022-11-15T05:44:23;12.63;;;5.30;;
51270;SDS011;37744;50.960;4.136;2022-11-15T05:47:48;14.82;;;5.53;;
51270;SDS011;37744;50.960;4.136;2022-11-15T05:51:15;9.95;;;4.50;;
51270;SDS011;37744;50.960;4.136;2022-11-15T05:54:41;10.30;;;4.70;;
51270;SDS011;37744;50.960;4.136;2022-11-15T05:58:06;14.05;;;5.00;;
51270;SDS011;37744;50.960;4.136;2022-11-15T06:01:31;9.85;;;5.55;;
51270;SDS011;37744;50.960;4.136;2022-11-15T06:04:55;13.68;;;4.97;;
51270;SDS011;37744;50.960;4.136;2022-11-15T06:08:19;7.23;;;4.27;;
51270;SDS011;37744;50.960;4.136;2022-11-15T06:11:43;12.30;;;4.45;;
51270;SDS011;37744;50.960;4.136;2022-11-15T06:15:07;10.47;;;4.53;;
51270;SDS011;37744;50.960;4.136;2022-11-15T06:18:31;12.63;;;4.32;;
51270;SDS011;37744;50.960;4.136;2022-11-15T06:21:58;10.45;;;4.55;;
51270;SDS011;37744;50.960;4.136;2022-11-15T06:25:23;7.88;;;3.83;;
51270;SDS011;37744;50.960;4.136;2022-11-15T06:28:46;10.90;;;3.90;;
51270;SDS011;37744;50.960;4.136;2022-11-15T06:32:10;9.17;;;4.03;;
51270;SDS011;37744;50.960;4.136;2022-11-15T06:35:35;12.60;;;5.07;;
51270;SDS011;37744;50.960;4.136;2022-11-15T06:42:23;10.70;;;4.88;;
51270;SDS011;37744;50.960;4.136;2022-11-15T06:45:47;9.43;;;5.10;;
51270;SDS011;37744;50.960;4.136;2022-11-15T06:49:11;11.10;;;5.87;;
51270;SDS011;37744;50.960;4.136;2022-11-15T06:52:34;8.47;;;5.57;;
51270;SDS011;37744;50.960;4.136;2022-11-15T06:56:00;16.55;;;7.13;;
51270;SDS011;37744;50.960;4.136;2022-11-15T06:59:24;17.33;;;7.20;;
51270;SDS011;37744;50.960;4.136;2022-11-15T07:02:48;14.47;;;6.97;;
51270;SDS011;37744;50.960;4.136;2022-11-15T07:06:12;14.57;;;7.82;;
51270;SDS011;37744;50.960;4.136;2022-11-15T07:09:36;14.90;;;7.90;;
51270;SDS011;37744;50.960;4.136;2022-11-15T07:13:00;20.90;;;9.15;;
51270;SDS011;37744;50.960;4.136;2022-11-15T07:16:24;20.88;;;9.15;;
51270;SDS011;37744;50.960;4.136;2022-11-15T07:19:48;20.80;;;9.27;;
51270;SDS011;37744;50.960;4.136;2022-11-15T07:23:12;24.70;;;9.70;;
51270;SDS011;37744;50.960;4.136;2022-11-15T07:26:36;16.20;;;9.27;;
51270;SDS011;37744;50.960;4.136;2022-11-15T07:30:00;15.40;;;9.03;;
51270;SDS011;37744;50.960;4.136;2022-11-15T07:33:28;18.02;;;8.45;;
51270;SDS011;37744;50.960;4.136;2022-11-15T07:36:52;15.38;;;9.32;;
51270;SDS011;37744;50.960;4.136;2022-11-15T07:40:19;14.45;;;7.80;;
51270;SDS011;37744;50.960;4.136;2022-11-15T07:43:43;21.40;;;8.57;;
51270;SDS011;37744;50.960;4.136;2022-11-15T07:47:07;17.37;;;8.17;;
51270;SDS011;37744;50.960;4.136;2022-11-15T07:50:31;17.30;;;9.83;;
51270;SDS011;37744;50.960;4.136;2022-11-15T07:53:55;27.58;;;16.77;;
51270;SDS011;37744;50.960;4.136;2022-11-15T07:57:18;15.17;;;8.97;;
51270;SDS011;37744;50.960;4.136;2022-11-15T08:00:42;12.10;;;6.37;;
51270;SDS011;37744;50.960;4.136;2022-11-15T08:04:06;11.80;;;6.47;;
51270;SDS011;37744;50.960;4.136;2022-11-15T08:07:32;8.95;;;5.65;;
51270;SDS011;37744;50.960;4.136;2022-11-15T08:10:59;14.50;;;5.28;;
51270;SDS011;37744;50.960;4.136;2022-11-15T08:14:23;10.35;;;4.47;;
51270;SDS011;37744;50.960;4.136;2022-11-15T08:17:47;7.33;;;4.07;;
51270;SDS011;37744;50.960;4.136;2022-11-15T08:21:11;9.37;;;3.77;;
51270;SDS011;37744;50.960;4.136;2022-11-15T08:24:38;7.63;;;3.60;;
51270;SDS011;37744;50.960;4.136;2022-11-15T08:28:03;7.55;;;3.65;;
51270;SDS011;37744;50.960;4.136;2022-11-15T08:31:28;13.90;;;3.42;;
51270;SDS011;37744;50.960;4.136;2022-11-15T08:34:52;8.52;;;2.92;;
51270;SDS011;37744;50.960;4.136;2022-11-15T08:38:17;7.72;;;2.95;;
51270;SDS011;37744;50.960;4.136;2022-11-15T08:45:05;7.93;;;2.90;;
51270;SDS011;37744;50.960;4.136;2022-11-15T08:48:29;11.07;;;3.50;;
51270;SDS011;37744;50.960;4.136;2022-11-15T08:51:54;6.80;;;2.65;;
51270;SDS011;37744;50.960;4.136;2022-11-15T08:55:17;8.33;;;2.30;;
51270;SDS011;37744;50.960;4.136;2022-11-15T08:58:41;6.73;;;2.30;;
51270;SDS011;37744;50.960;4.136;2022-11-15T09:02:05;5.47;;;2.23;;
51270;SDS011;37744;50.960;4.136;2022-11-15T09:05:30;7.57;;;2.20;;
51270;SDS011;37744;50.960;4.136;2022-11-15T09:08:55;3.50;;;2.00;;
51270;SDS011;37744;50.960;4.136;2022-11-15T09:12:19;6.45;;;1.83;;
51270;SDS011;37744;50.960;4.136;2022-11-15T09:15:44;6.63;;;2.00;;
51270;SDS011;37744;50.960;4.136;2022-11-15T09:19:08;8.38;;;2.40;;
51270;SDS011;37744;50.960;4.136;2022-11-15T09:22:33;8.15;;;2.30;;
51270;SDS011;37744;50.960;4.136;2022-11-15T09:26:00;5.23;;;2.20;;
51270;SDS011;37744;50.960;4.136;2022-11-15T09:29:24;6.57;;;2.45;;
51270;SDS011;37744;50.960;4.136;2022-11-15T09:32:49;4.88;;;2.30;;
51270;SDS011;37744;50.960;4.136;2022-11-15T09:36:13;11.13;;;2.28;;
